createdAt,value
2023-02-22T00:02:10.796Z,2.73
2023-02-22T00:04:39.968Z,2.73
2023-02-22T00:07:07.239Z,2.40
2023-02-22T00:09:34.342Z,2.53
2023-02-22T00:12:03.919Z,2.60
2023-02-22T00:14:30.911Z,2.37
2023-02-22T00:16:59.786Z,2.47
2023-02-22T00:19:28.173Z,2.40
2023-02-22T00:21:55.348Z,2.50
2023-02-22T00:24:25.016Z,2.40
2023-02-22T00:26:56.013Z,2.50
2023-02-22T00:29:25.102Z,2.10
2023-02-22T00:31:52.414Z,2.40
2023-02-22T00:34:19.430Z,2.43
2023-02-22T00:36:49.748Z,2.40
2023-02-22T00:39:16.946Z,2.17
2023-02-22T00:41:45.325Z,2.50
2023-02-22T00:44:15.075Z,2.40
2023-02-22T00:46:42.062Z,2.40
2023-02-22T00:49:09.019Z,2.60
2023-02-22T00:51:37.599Z,2.37
2023-02-22T00:54:05.413Z,2.43
2023-02-22T00:56:34.418Z,2.50
2023-02-22T00:59:01.744Z,2.40
2023-02-22T01:01:29.817Z,2.30
2023-02-22T01:03:56.822Z,2.50
2023-02-22T01:06:23.971Z,2.40
2023-02-22T01:08:51.494Z,2.43
2023-02-22T01:11:18.770Z,2.20
2023-02-22T01:13:46.473Z,2.33
2023-02-22T01:16:14.029Z,2.37
2023-02-22T01:18:44.086Z,2.30
2023-02-22T01:21:11.154Z,2.40
2023-02-22T01:27:51.443Z,2.27
2023-02-22T01:30:25.173Z,2.40
2023-02-22T01:32:54.199Z,2.30
2023-02-22T01:35:24.619Z,2.50
2023-02-22T01:37:51.646Z,2.40
2023-02-22T01:40:39.602Z,2.33
2023-02-22T01:43:18.172Z,2.20
2023-02-22T01:45:55.995Z,2.37
2023-02-22T01:48:32.955Z,2.20
2023-02-22T01:51:18.933Z,2.10
2023-02-22T01:53:54.795Z,2.37
2023-02-22T01:56:25.275Z,2.30
2023-02-22T01:59:02.480Z,2.30
2023-02-22T02:01:30.709Z,2.43
2023-02-22T02:04:03.425Z,2.23
2023-02-22T02:06:33.858Z,2.50
2023-02-22T02:09:18.124Z,2.33
2023-02-22T02:11:46.111Z,2.40
2023-02-22T02:14:13.808Z,2.30
2023-02-22T02:16:46.347Z,2.10
2023-02-22T02:19:23.623Z,2.00
2023-02-22T02:22:19.846Z,2.20
2023-02-22T02:25:06.661Z,2.23
2023-02-22T02:27:52.362Z,2.43
2023-02-22T02:30:46.220Z,2.37
2023-02-22T02:33:37.774Z,2.30
2023-02-22T02:36:10.093Z,2.40
2023-02-22T02:38:55.858Z,2.53
2023-02-22T02:41:34.299Z,2.40
2023-02-22T02:44:27.822Z,2.10
2023-02-22T02:47:09.381Z,2.40
2023-02-22T02:50:03.020Z,2.50
2023-02-22T02:52:35.988Z,2.30
2023-02-22T02:55:05.075Z,2.30
2023-02-22T02:57:32.548Z,2.50
2023-02-22T03:00:00.095Z,2.00
2023-02-22T03:02:39.444Z,2.60
2023-02-22T03:05:43.976Z,2.60
2023-02-22T03:08:24.808Z,2.63
2023-02-22T03:11:16.245Z,2.77
2023-02-22T03:14:02.349Z,2.50
2023-02-22T03:16:54.321Z,2.60
2023-02-22T03:19:35.868Z,2.47
2023-02-22T03:22:20.863Z,2.60
2023-02-22T03:25:14.930Z,2.40
2023-02-22T03:27:53.375Z,2.70
2023-02-22T03:30:31.756Z,2.50
2023-02-22T03:33:09.213Z,2.40
2023-02-22T03:35:48.421Z,2.50
2023-02-22T03:38:19.287Z,2.40
2023-02-22T03:40:54.501Z,2.40
2023-02-22T03:44:02.329Z,2.20
2023-02-22T03:46:31.609Z,2.20
2023-02-22T03:49:07.200Z,2.10
2023-02-22T03:51:37.489Z,2.27
2023-02-22T03:54:05.860Z,2.33
2023-02-22T03:56:52.284Z,2.50
2023-02-22T03:59:27.344Z,2.50
2023-02-22T04:01:56.895Z,2.40
2023-02-22T04:04:25.438Z,2.30
2023-02-22T04:06:52.862Z,2.57
2023-02-22T04:09:20.994Z,2.70
2023-02-22T04:11:48.700Z,2.50
2023-02-22T04:14:16.456Z,2.60
2023-02-22T04:16:43.448Z,2.50
2023-02-22T04:19:10.716Z,2.10
2023-02-22T04:21:38.891Z,2.27
2023-02-22T04:24:10.152Z,2.50
2023-02-22T04:26:37.558Z,2.60
2023-02-22T04:29:06.775Z,2.60
2023-02-22T04:31:38.368Z,2.60
2023-02-22T04:34:06.997Z,2.40
2023-02-22T04:36:38.251Z,2.47
2023-02-22T04:39:05.461Z,2.70
2023-02-22T04:41:34.557Z,2.50
2023-02-22T04:44:01.952Z,2.50
2023-02-22T04:46:30.242Z,2.47
2023-02-22T04:48:58.983Z,2.70
2023-02-22T04:51:28.768Z,2.63
2023-02-22T04:54:05.514Z,2.70
2023-02-22T04:56:34.789Z,2.63
2023-02-22T04:59:01.891Z,2.57
2023-02-22T05:01:34.414Z,2.60
2023-02-22T05:04:07.541Z,2.70
2023-02-22T05:06:35.778Z,2.80
2023-02-22T05:09:02.852Z,2.60
2023-02-22T05:11:30.080Z,2.77
2023-02-22T05:13:57.055Z,2.50
2023-02-22T05:16:24.568Z,2.60
2023-02-22T05:18:51.707Z,2.57
2023-02-22T05:21:18.892Z,2.80
2023-02-22T05:23:46.246Z,2.60
2023-02-22T05:26:14.284Z,2.77
2023-02-22T05:28:41.304Z,2.93
2023-02-22T05:31:10.689Z,2.90
2023-02-22T05:33:39.720Z,3.00
2023-02-22T05:36:07.843Z,2.90
2023-02-22T05:38:34.923Z,2.90
2023-02-22T05:41:02.289Z,2.80
2023-02-22T05:43:29.209Z,3.00
2023-02-22T05:45:56.196Z,3.17
2023-02-22T05:48:23.147Z,3.10
2023-02-22T05:50:50.199Z,2.97
2023-02-22T05:53:17.606Z,3.00
2023-02-22T05:55:46.614Z,3.17
2023-02-22T05:58:13.654Z,3.00
2023-02-22T06:00:42.553Z,2.87
2023-02-22T06:03:12.995Z,3.20
2023-02-22T06:05:41.954Z,3.20
2023-02-22T06:08:09.847Z,2.97
2023-02-22T06:10:40.535Z,2.93
2023-02-22T06:13:07.925Z,2.90
2023-02-22T06:15:34.925Z,3.03
2023-02-22T06:18:03.435Z,2.97
2023-02-22T06:20:30.893Z,3.20
2023-02-22T06:23:01.807Z,3.03
2023-02-22T06:25:34.055Z,3.07
2023-02-22T06:28:01.670Z,3.13
2023-02-22T06:30:29.429Z,4.70
2023-02-22T06:32:57.286Z,4.97
2023-02-22T06:35:25.338Z,3.90
2023-02-22T06:37:52.339Z,3.97
2023-02-22T06:40:21.509Z,3.93
2023-02-22T06:42:49.522Z,3.57
2023-02-22T06:45:18.104Z,3.90
2023-02-22T06:47:45.333Z,3.90
2023-02-22T06:50:22.200Z,3.53
2023-02-22T06:52:49.408Z,3.73
2023-02-22T06:55:21.894Z,3.83
2023-02-22T06:57:48.867Z,3.67
2023-02-22T07:00:18.855Z,3.50
2023-02-22T07:02:46.807Z,3.77
2023-02-22T07:05:14.235Z,3.60
2023-02-22T07:07:41.350Z,3.50
2023-02-22T07:10:16.011Z,3.80
2023-02-22T07:12:43.247Z,3.90
2023-02-22T07:15:10.425Z,3.83
2023-02-22T07:17:37.383Z,4.40
2023-02-22T07:20:04.607Z,4.40
2023-02-22T07:22:31.513Z,4.37
2023-02-22T07:24:58.421Z,4.27
2023-02-22T07:27:25.676Z,3.97
2023-02-22T07:29:52.692Z,4.10
2023-02-22T07:32:19.700Z,3.93
2023-02-22T07:34:46.726Z,4.00
2023-02-22T07:37:13.790Z,3.80
2023-02-22T07:39:43.801Z,3.80
2023-02-22T07:42:10.868Z,3.83
2023-02-22T07:44:37.873Z,3.83
2023-02-22T07:47:05.134Z,3.70
2023-02-22T07:49:32.162Z,3.77
2023-02-22T07:52:00.660Z,4.10
2023-02-22T07:54:29.024Z,3.90
2023-02-22T07:56:56.215Z,3.93
2023-02-22T07:59:23.261Z,4.00
2023-02-22T08:01:50.836Z,3.80
2023-02-22T08:04:19.067Z,3.67
2023-02-22T08:06:47.572Z,3.70
2023-02-22T08:09:14.569Z,3.50
2023-02-22T08:11:41.801Z,3.80
2023-02-22T08:14:08.809Z,3.70
2023-02-22T08:16:36.438Z,3.50
2023-02-22T08:19:03.403Z,3.77
2023-02-22T08:21:30.454Z,3.60
2023-02-22T08:23:57.399Z,3.47
2023-02-22T08:26:25.532Z,2.90
2023-02-22T08:28:52.574Z,2.80
2023-02-22T08:31:20.915Z,3.50
2023-02-22T08:33:49.955Z,3.40
2023-02-22T08:36:18.638Z,2.93
2023-02-22T08:38:45.716Z,3.30
2023-02-22T08:41:13.998Z,3.40
2023-02-22T08:43:41.105Z,3.40
2023-02-22T08:46:08.591Z,3.20
2023-02-22T08:48:35.535Z,3.10
2023-02-22T08:51:02.554Z,3.00
2023-02-22T08:53:30.296Z,2.67
2023-02-22T08:55:57.364Z,2.83
2023-02-22T08:58:24.346Z,2.70
2023-02-22T09:00:51.509Z,2.90
2023-02-22T09:03:18.497Z,3.10
2023-02-22T09:05:45.924Z,3.10
2023-02-22T09:08:13.463Z,3.20
2023-02-22T09:10:40.835Z,3.00
2023-02-22T09:13:09.796Z,3.03
2023-02-22T09:15:39.751Z,2.80
2023-02-22T09:18:11.464Z,2.93
2023-02-22T09:20:38.590Z,2.60
2023-02-22T09:23:09.753Z,2.40
2023-02-22T09:25:39.034Z,2.50
2023-02-22T09:28:06.446Z,2.47
2023-02-22T09:30:35.217Z,2.37
2023-02-22T09:33:06.232Z,2.07
2023-02-22T09:35:36.660Z,2.40
2023-02-22T09:38:06.466Z,2.20
2023-02-22T09:40:41.020Z,2.33
2023-02-22T09:43:08.122Z,2.50
2023-02-22T09:45:59.742Z,2.20
2023-02-22T09:48:27.103Z,2.33
2023-02-22T09:50:59.612Z,3.80
2023-02-22T09:53:37.192Z,7.83
2023-02-22T09:56:11.068Z,7.13
2023-02-22T09:58:53.476Z,7.00
2023-02-22T10:01:27.083Z,7.57
2023-02-22T10:04:08.718Z,10.27
2023-02-22T10:06:37.309Z,12.00
2023-02-22T10:09:08.029Z,9.43
2023-02-22T10:11:37.864Z,3.57
2023-02-22T10:14:20.436Z,3.30
2023-02-22T10:16:59.618Z,2.93
2023-02-22T10:19:32.705Z,3.13
2023-02-22T10:22:30.703Z,4.43
2023-02-22T10:25:04.829Z,5.80
2023-02-22T10:27:36.845Z,6.00
2023-02-22T10:30:25.999Z,5.97
2023-02-22T10:33:18.956Z,5.50
2023-02-22T10:35:47.261Z,5.60
2023-02-22T10:38:23.547Z,5.63
2023-02-22T10:41:10.597Z,5.40
2023-02-22T10:43:39.230Z,5.87
2023-02-22T10:46:08.071Z,5.73
2023-02-22T10:48:41.157Z,5.43
2023-02-22T10:51:09.825Z,5.10
2023-02-22T10:53:38.659Z,4.20
2023-02-22T10:56:08.100Z,3.60
2023-02-22T10:58:56.025Z,3.80
2023-02-22T11:01:29.999Z,3.87
2023-02-22T11:04:04.662Z,3.97
2023-02-22T11:06:35.301Z,3.87
2023-02-22T11:09:10.459Z,4.10
2023-02-22T11:11:40.129Z,4.00
2023-02-22T11:14:10.759Z,4.00
2023-02-22T11:16:45.404Z,3.57
2023-02-22T11:19:25.728Z,4.30
2023-02-22T11:22:09.916Z,4.13
2023-02-22T11:24:50.922Z,4.00
2023-02-22T11:27:32.610Z,3.80
2023-02-22T11:30:21.166Z,4.07
2023-02-22T11:32:58.483Z,4.13
2023-02-22T11:35:25.504Z,3.90
2023-02-22T11:37:52.735Z,3.87
2023-02-22T11:40:23.220Z,3.70
2023-02-22T11:43:08.396Z,3.53
2023-02-22T11:45:35.635Z,3.37
2023-02-22T11:48:05.247Z,3.40
2023-02-22T11:50:41.797Z,2.93
2023-02-22T11:53:59.521Z,3.27
2023-02-22T11:56:48.243Z,3.27
2023-02-22T11:59:41.753Z,3.20
2023-02-22T12:02:31.326Z,3.20
2023-02-22T12:05:27.888Z,3.20
2023-02-22T12:08:44.712Z,2.90
2023-02-22T12:11:20.517Z,2.70
2023-02-22T12:14:25.792Z,2.90
2023-02-22T12:17:21.143Z,3.20
2023-02-22T12:19:52.405Z,2.93
2023-02-22T12:22:39.439Z,3.17
2023-02-22T12:25:16.046Z,3.60
2023-02-22T12:27:49.321Z,3.40
2023-02-22T12:30:30.759Z,3.60
2023-02-22T12:33:06.577Z,3.67
2023-02-22T12:35:37.364Z,3.50
2023-02-22T12:38:31.172Z,3.60
2023-02-22T12:41:18.955Z,3.50
2023-02-22T12:43:51.886Z,3.63
2023-02-22T12:46:29.666Z,3.40
2023-02-22T12:49:17.739Z,3.23
2023-02-22T12:52:20.911Z,3.30
2023-02-22T12:55:02.047Z,3.20
2023-02-22T12:57:51.804Z,3.10
2023-02-22T13:00:31.646Z,3.33
2023-02-22T13:03:37.462Z,3.20
2023-02-22T13:06:22.903Z,3.67
2023-02-22T13:09:07.773Z,3.30
2023-02-22T13:11:51.536Z,3.10
2023-02-22T13:14:27.550Z,3.30
2023-02-22T13:17:02.171Z,3.40
2023-02-22T13:19:44.299Z,3.30
2023-02-22T13:22:14.072Z,3.30
2023-02-22T13:25:04.733Z,3.40
2023-02-22T13:27:57.421Z,3.60
2023-02-22T13:31:03.839Z,3.43
2023-02-22T13:34:02.978Z,3.77
2023-02-22T13:36:43.385Z,3.70
2023-02-22T13:39:39.827Z,3.40
2023-02-22T13:42:14.853Z,3.63
2023-02-22T13:45:20.302Z,3.90
2023-02-22T13:47:53.224Z,4.07
2023-02-22T13:50:26.284Z,3.57
2023-02-22T13:52:56.217Z,3.43
2023-02-22T13:55:29.951Z,3.67
2023-02-22T13:58:15.499Z,3.77
2023-02-22T14:01:00.216Z,3.50
2023-02-22T14:03:36.453Z,3.40
2023-02-22T14:06:38.443Z,3.53
2023-02-22T14:09:19.099Z,3.57
2023-02-22T14:11:47.735Z,3.53
2023-02-22T14:14:18.045Z,3.60
2023-02-22T14:17:07.619Z,3.90
2023-02-22T14:19:34.681Z,3.93
2023-02-22T14:22:04.830Z,3.50
2023-02-22T14:24:44.268Z,3.50
2023-02-22T14:27:12.336Z,3.50
2023-02-22T14:29:53.902Z,3.70
2023-02-22T14:32:33.561Z,3.53
2023-02-22T14:35:26.425Z,3.80
2023-02-22T14:38:00.876Z,3.27
2023-02-22T14:40:33.891Z,3.33
2023-02-22T14:43:12.902Z,3.10
2023-02-22T14:45:55.063Z,3.20
2023-02-22T14:48:42.799Z,3.60
2023-02-22T14:51:21.775Z,3.07
2023-02-22T14:54:04.702Z,3.10
2023-02-22T14:56:41.311Z,3.30
2023-02-22T14:59:27.846Z,3.00
2023-02-22T15:02:12.416Z,3.07
2023-02-22T15:04:44.022Z,3.10
2023-02-22T15:07:27.472Z,2.80
2023-02-22T15:10:31.063Z,2.83
2023-02-22T15:13:09.404Z,3.50
2023-02-22T15:15:47.539Z,3.80
2023-02-22T15:18:23.829Z,3.90
2023-02-22T15:20:56.378Z,3.87
2023-02-22T15:23:49.127Z,3.33
2023-02-22T15:26:31.394Z,4.00
2023-02-22T15:29:00.067Z,3.93
2023-02-22T15:31:36.075Z,4.17
2023-02-22T15:34:16.112Z,4.27
2023-02-22T15:36:45.941Z,4.40
2023-02-22T15:39:43.999Z,4.90
2023-02-22T15:42:19.336Z,4.30
2023-02-22T15:44:49.634Z,4.30
2023-02-22T15:47:22.960Z,3.87
2023-02-22T15:50:26.474Z,4.40
2023-02-22T15:53:00.331Z,4.63
2023-02-22T15:55:44.054Z,4.33
2023-02-22T15:58:28.975Z,3.80
2023-02-22T16:01:09.135Z,3.70
2023-02-22T16:03:45.213Z,3.93
2023-02-22T16:06:37.895Z,4.13
2023-02-22T16:09:29.611Z,3.90
2023-02-22T16:12:24.367Z,3.97
2023-02-22T16:14:54.702Z,4.50
2023-02-22T16:17:26.598Z,4.40
2023-02-22T16:19:54.920Z,4.20
2023-02-22T16:22:31.307Z,3.90
2023-02-22T16:25:16.665Z,4.13
2023-02-22T16:27:57.691Z,4.30
2023-02-22T16:30:39.895Z,4.60
2023-02-22T16:33:14.179Z,4.53
2023-02-22T16:35:52.458Z,4.47
2023-02-22T16:38:21.632Z,4.20
2023-02-22T16:40:55.350Z,4.57
2023-02-22T16:43:31.790Z,4.90
2023-02-22T16:46:06.149Z,5.00
2023-02-22T16:48:34.293Z,5.37
2023-02-22T16:51:16.725Z,4.87
2023-02-22T16:53:45.064Z,4.83
2023-02-22T16:56:16.882Z,5.20
2023-02-22T16:58:46.709Z,5.63
2023-02-22T17:01:14.182Z,5.60
2023-02-22T17:03:42.716Z,5.73
2023-02-22T17:06:16.539Z,5.57
2023-02-22T17:08:44.831Z,6.07
2023-02-22T17:11:14.808Z,5.33
2023-02-22T17:13:42.753Z,5.20
2023-02-22T17:16:17.894Z,4.60
2023-02-22T17:18:46.118Z,5.00
2023-02-22T17:21:16.958Z,5.23
2023-02-22T17:23:46.186Z,5.80
2023-02-22T17:26:17.618Z,6.00
2023-02-22T17:28:45.582Z,6.30
2023-02-22T17:31:27.682Z,5.80
2023-02-22T17:34:02.556Z,6.00
2023-02-22T17:36:32.134Z,6.50
2023-02-22T17:39:00.415Z,6.33
2023-02-22T17:41:28.223Z,6.03
2023-02-22T17:43:58.497Z,6.20
2023-02-22T17:46:26.419Z,5.33
2023-02-22T17:48:57.885Z,5.30
2023-02-22T17:51:27.173Z,5.27
2023-02-22T17:53:56.079Z,5.37
2023-02-22T17:56:25.119Z,6.10
2023-02-22T17:58:54.946Z,5.80
2023-02-22T18:01:29.158Z,5.80
2023-02-22T18:04:01.406Z,5.83
2023-02-22T18:06:32.883Z,6.07
2023-02-22T18:09:01.316Z,6.40
2023-02-22T18:11:33.154Z,8.50
2023-02-22T18:14:02.666Z,8.17
2023-02-22T18:16:33.393Z,8.57
2023-02-22T18:19:01.734Z,7.70
2023-02-22T18:21:30.872Z,8.93
2023-02-22T18:23:59.162Z,8.07
2023-02-22T18:26:28.406Z,7.97
2023-02-22T18:28:56.944Z,7.93
2023-02-22T18:31:26.314Z,8.30
2023-02-22T18:33:54.451Z,7.87
2023-02-22T18:36:25.470Z,7.90
2023-02-22T18:38:58.572Z,7.23
2023-02-22T18:41:30.677Z,8.20
2023-02-22T18:44:00.919Z,9.53
2023-02-22T18:46:31.059Z,9.50
2023-02-22T18:49:00.477Z,8.43
2023-02-22T18:51:37.710Z,8.20
2023-02-22T18:54:06.037Z,7.83
2023-02-22T18:56:34.525Z,8.93
2023-02-22T18:59:04.781Z,8.63
2023-02-22T19:01:39.543Z,9.37
2023-02-22T19:04:13.172Z,9.33
2023-02-22T19:06:43.394Z,9.07
2023-02-22T19:09:11.810Z,9.10
2023-02-22T19:11:47.837Z,9.70
2023-02-22T19:14:17.396Z,10.23
2023-02-22T19:16:47.089Z,9.53
2023-02-22T19:19:23.569Z,9.17
2023-02-22T19:21:53.130Z,9.00
2023-02-22T19:24:24.792Z,9.30
2023-02-22T19:27:08.020Z,9.03
2023-02-22T19:29:40.490Z,9.93
2023-02-22T19:32:12.066Z,9.70
2023-02-22T19:34:40.452Z,9.37
2023-02-22T19:37:13.623Z,9.90
2023-02-22T19:39:42.467Z,10.23
2023-02-22T19:42:11.045Z,10.33
2023-02-22T19:44:40.487Z,10.70
2023-02-22T19:47:11.739Z,10.10
2023-02-22T19:49:41.760Z,10.27
2023-02-22T19:52:13.380Z,10.03
2023-02-22T19:54:44.563Z,9.67
2023-02-22T19:57:15.289Z,9.00
2023-02-22T19:59:45.557Z,10.53
2023-02-22T20:02:15.672Z,10.47
2023-02-22T20:04:47.121Z,10.10
2023-02-22T20:07:17.058Z,10.20
2023-02-22T20:09:45.046Z,10.67
2023-02-22T20:12:13.315Z,10.17
2023-02-22T20:14:41.009Z,10.30
2023-02-22T20:17:10.822Z,10.70
2023-02-22T20:19:41.985Z,11.00
2023-02-22T20:22:11.349Z,10.80
2023-02-22T20:24:42.461Z,11.13
2023-02-22T20:27:10.795Z,10.80
2023-02-22T20:29:40.154Z,11.27
2023-02-22T20:32:12.996Z,10.87
2023-02-22T20:34:45.628Z,11.37
2023-02-22T20:37:15.380Z,11.20
2023-02-22T20:39:45.167Z,11.13
2023-02-22T20:42:16.735Z,11.93
2023-02-22T20:44:45.763Z,11.77
2023-02-22T20:47:13.477Z,11.70
2023-02-22T20:49:42.182Z,11.73
2023-02-22T20:52:10.180Z,12.30
2023-02-22T20:54:38.653Z,11.83
2023-02-22T20:57:08.226Z,11.50
2023-02-22T20:59:45.274Z,12.20
2023-02-22T21:02:16.607Z,12.60
2023-02-22T21:04:46.011Z,12.97
2023-02-22T21:07:15.253Z,12.90
2023-02-22T21:09:45.738Z,13.40
2023-02-22T21:12:20.815Z,12.77
2023-02-22T21:14:49.032Z,13.50
2023-02-22T21:17:22.172Z,13.30
2023-02-22T21:19:50.465Z,13.87
2023-02-22T21:22:18.429Z,13.60
2023-02-22T21:24:50.297Z,13.30
2023-02-22T21:27:20.104Z,13.60
2023-02-22T21:29:48.734Z,13.97
2023-02-22T21:32:17.022Z,13.00
2023-02-22T21:34:45.100Z,14.37
2023-02-22T21:37:19.594Z,14.07
2023-02-22T21:39:49.607Z,13.90
2023-02-22T21:42:18.505Z,13.90
2023-02-22T21:44:45.926Z,14.47
2023-02-22T21:47:13.768Z,14.00
2023-02-22T21:49:42.864Z,14.57
2023-02-22T21:52:10.258Z,14.17
2023-02-22T21:54:39.884Z,14.30
2023-02-22T21:57:07.303Z,13.97
2023-02-22T21:59:34.880Z,14.03
2023-02-22T22:02:02.242Z,13.80
2023-02-22T22:04:31.511Z,13.37
2023-02-22T22:07:01.371Z,13.47
2023-02-22T22:09:32.919Z,13.30
2023-02-22T22:12:05.072Z,13.30
2023-02-22T22:14:34.276Z,13.37
2023-02-22T22:17:01.577Z,13.73
2023-02-22T22:19:30.479Z,13.63
2023-02-22T22:21:59.353Z,13.17
2023-02-22T22:24:29.972Z,13.03
2023-02-22T22:26:57.098Z,12.93
2023-02-22T22:29:26.958Z,13.57
2023-02-22T22:31:57.246Z,13.30
2023-02-22T22:34:24.438Z,13.60
2023-02-22T22:36:52.140Z,13.50
2023-02-22T22:39:21.212Z,13.07
2023-02-22T22:41:48.753Z,13.60
2023-02-22T22:44:22.637Z,13.43
2023-02-22T22:46:53.639Z,13.37
2023-02-22T22:49:23.341Z,13.60
2023-02-22T22:51:50.485Z,13.30
2023-02-22T22:54:17.599Z,13.47
2023-02-22T22:56:45.009Z,13.57
2023-02-22T22:59:13.475Z,13.20
2023-02-22T23:01:44.618Z,13.43
2023-02-22T23:04:17.264Z,13.47
2023-02-22T23:06:47.312Z,14.67
2023-02-22T23:09:18.472Z,13.87
2023-02-22T23:11:53.442Z,14.33
2023-02-22T23:14:32.530Z,13.93
2023-02-22T23:17:03.808Z,13.80
2023-02-22T23:19:36.452Z,14.27
2023-02-22T23:22:07.810Z,14.50
2023-02-22T23:24:36.796Z,14.40
2023-02-22T23:27:07.304Z,13.57
2023-02-22T23:29:38.062Z,14.07
2023-02-22T23:32:09.554Z,13.07
2023-02-22T23:34:41.226Z,13.00
2023-02-22T23:37:10.611Z,14.33
2023-02-22T23:39:38.095Z,14.03
2023-02-22T23:42:05.167Z,15.63
2023-02-22T23:44:32.542Z,13.90
2023-02-22T23:46:59.679Z,13.63
2023-02-22T23:49:33.806Z,14.67
2023-02-22T23:52:00.973Z,15.37
2023-02-22T23:54:36.141Z,14.10
2023-02-22T23:57:05.364Z,14.47
2023-02-22T23:59:33.808Z,14.23
